sensor_id;sensor_type;location;lat;lon;timestamp;P1;durP1;ratioP1;P2;durP2;ratioP2
23812;SDS011;12087;45.190;5.688;2023-02-25T00:04:48;7.82;;;3.67;;
23812;SDS011;12087;45.190;5.688;2023-02-25T00:10:11;9.88;;;4.05;;
23812;SDS011;12087;45.190;5.688;2023-02-25T00:15:34;8.90;;;3.35;;
23812;SDS011;12087;45.190;5.688;2023-02-25T00:20:58;6.47;;;3.72;;
23812;SDS011;12087;45.190;5.688;2023-02-25T00:26:24;8.70;;;3.70;;
23812;SDS011;12087;45.190;5.688;2023-02-25T00:31:46;6.57;;;3.10;;
23812;SDS011;12087;45.190;5.688;2023-02-25T00:37:10;3.33;;;2.05;;
23812;SDS011;12087;45.190;5.688;2023-02-25T00:42:32;7.80;;;2.80;;
23812;SDS011;12087;45.190;5.688;2023-02-25T00:47:54;5.30;;;2.10;;
23812;SDS011;12087;45.190;5.688;2023-02-25T00:53:19;3.58;;;2.50;;
23812;SDS011;12087;45.190;5.688;2023-02-25T00:58:41;6.10;;;2.28;;
23812;SDS011;12087;45.190;5.688;2023-02-25T01:04:04;29.90;;;2.53;;
23812;SDS011;12087;45.190;5.688;2023-02-25T01:09:29;4.65;;;1.88;;
23812;SDS011;12087;45.190;5.688;2023-02-25T01:14:53;3.75;;;1.70;;
23812;SDS011;12087;45.190;5.688;2023-02-25T01:20:16;4.05;;;1.58;;
23812;SDS011;12087;45.190;5.688;2023-02-25T01:25:40;4.53;;;1.52;;
23812;SDS011;12087;45.190;5.688;2023-02-25T01:31:03;3.92;;;1.58;;
23812;SDS011;12087;45.190;5.688;2023-02-25T01:36:28;3.60;;;1.80;;
23812;SDS011;12087;45.190;5.688;2023-02-25T01:41:53;5.65;;;1.70;;
23812;SDS011;12087;45.190;5.688;2023-02-25T01:47:17;5.20;;;1.83;;
23812;SDS011;12087;45.190;5.688;2023-02-25T01:52:40;3.58;;;1.92;;
23812;SDS011;12087;45.190;5.688;2023-02-25T01:58:05;7.63;;;2.17;;
23812;SDS011;12087;45.190;5.688;2023-02-25T02:03:30;6.45;;;2.60;;
23812;SDS011;12087;45.190;5.688;2023-02-25T02:08:55;7.22;;;2.13;;
23812;SDS011;12087;45.190;5.688;2023-02-25T02:14:19;10.00;;;2.97;;
23812;SDS011;12087;45.190;5.688;2023-02-25T02:19:55;9.55;;;2.30;;
23812;SDS011;12087;45.190;5.688;2023-02-25T02:25:40;6.10;;;2.47;;
23812;SDS011;12087;45.190;5.688;2023-02-25T02:37:28;4.45;;;2.78;;
23812;SDS011;12087;45.190;5.688;2023-02-25T02:43:03;5.47;;;2.90;;
23812;SDS011;12087;45.190;5.688;2023-02-25T02:48:32;7.47;;;2.67;;
23812;SDS011;12087;45.190;5.688;2023-02-25T02:54:01;6.07;;;2.97;;
23812;SDS011;12087;45.190;5.688;2023-02-25T02:59:26;5.80;;;2.70;;
23812;SDS011;12087;45.190;5.688;2023-02-25T03:04:54;6.05;;;3.13;;
23812;SDS011;12087;45.190;5.688;2023-02-25T03:10:20;5.93;;;3.25;;
23812;SDS011;12087;45.190;5.688;2023-02-25T03:15:43;7.85;;;2.53;;
23812;SDS011;12087;45.190;5.688;2023-02-25T03:21:07;8.27;;;3.28;;
23812;SDS011;12087;45.190;5.688;2023-02-25T03:26:35;9.02;;;3.00;;
23812;SDS011;12087;45.190;5.688;2023-02-25T03:32:02;6.93;;;2.60;;
23812;SDS011;12087;45.190;5.688;2023-02-25T03:37:30;5.28;;;2.50;;
23812;SDS011;12087;45.190;5.688;2023-02-25T03:42:59;6.82;;;3.30;;
23812;SDS011;12087;45.190;5.688;2023-02-25T03:48:26;7.50;;;3.60;;
23812;SDS011;12087;45.190;5.688;2023-02-25T03:53:49;7.47;;;3.22;;
23812;SDS011;12087;45.190;5.688;2023-02-25T03:59:14;10.73;;;3.88;;
23812;SDS011;12087;45.190;5.688;2023-02-25T04:04:38;6.25;;;2.65;;
23812;SDS011;12087;45.190;5.688;2023-02-25T04:10:00;11.00;;;3.63;;
23812;SDS011;12087;45.190;5.688;2023-02-25T04:15:24;9.10;;;4.55;;
23812;SDS011;12087;45.190;5.688;2023-02-25T04:20:48;11.88;;;4.85;;
23812;SDS011;12087;45.190;5.688;2023-02-25T04:26:11;12.43;;;4.93;;
23812;SDS011;12087;45.190;5.688;2023-02-25T04:31:34;8.48;;;3.38;;
23812;SDS011;12087;45.190;5.688;2023-02-25T04:36:57;5.55;;;3.65;;
23812;SDS011;12087;45.190;5.688;2023-02-25T04:42:21;8.13;;;3.53;;
23812;SDS011;12087;45.190;5.688;2023-02-25T04:47:45;9.25;;;3.47;;
23812;SDS011;12087;45.190;5.688;2023-02-25T04:53:07;8.95;;;3.60;;
23812;SDS011;12087;45.190;5.688;2023-02-25T04:58:29;6.53;;;3.00;;
23812;SDS011;12087;45.190;5.688;2023-02-25T05:03:54;7.72;;;3.53;;
23812;SDS011;12087;45.190;5.688;2023-02-25T05:09:16;7.97;;;3.03;;
23812;SDS011;12087;45.190;5.688;2023-02-25T05:14:40;5.80;;;3.38;;
23812;SDS011;12087;45.190;5.688;2023-02-25T05:20:05;5.80;;;3.30;;
23812;SDS011;12087;45.190;5.688;2023-02-25T05:25:31;10.90;;;3.25;;
23812;SDS011;12087;45.190;5.688;2023-02-25T05:30:54;5.25;;;3.60;;
23812;SDS011;12087;45.190;5.688;2023-02-25T05:36:17;7.15;;;3.88;;
23812;SDS011;12087;45.190;5.688;2023-02-25T05:41:40;10.10;;;5.18;;
23812;SDS011;12087;45.190;5.688;2023-02-25T05:47:02;7.15;;;4.18;;
23812;SDS011;12087;45.190;5.688;2023-02-25T05:52:26;7.78;;;4.47;;
23812;SDS011;12087;45.190;5.688;2023-02-25T05:57:48;8.40;;;4.43;;
23812;SDS011;12087;45.190;5.688;2023-02-25T06:03:11;6.85;;;4.45;;
23812;SDS011;12087;45.190;5.688;2023-02-25T06:08:34;6.22;;;3.75;;
23812;SDS011;12087;45.190;5.688;2023-02-25T06:13:58;4.45;;;3.40;;
23812;SDS011;12087;45.190;5.688;2023-02-25T06:19:20;4.65;;;2.90;;
23812;SDS011;12087;45.190;5.688;2023-02-25T06:24:44;3.90;;;3.10;;
23812;SDS011;12087;45.190;5.688;2023-02-25T06:30:07;4.00;;;2.85;;
23812;SDS011;12087;45.190;5.688;2023-02-25T06:35:32;3.35;;;2.80;;
23812;SDS011;12087;45.190;5.688;2023-02-25T06:40:56;6.80;;;2.40;;
23812;SDS011;12087;45.190;5.688;2023-02-25T06:46:19;3.40;;;2.58;;
23812;SDS011;12087;45.190;5.688;2023-02-25T06:51:43;3.38;;;2.40;;
23812;SDS011;12087;45.190;5.688;2023-02-25T06:57:06;2.70;;;2.30;;
23812;SDS011;12087;45.190;5.688;2023-02-25T07:02:29;6.00;;;2.55;;
23812;SDS011;12087;45.190;5.688;2023-02-25T07:07:51;2.85;;;2.35;;
23812;SDS011;12087;45.190;5.688;2023-02-25T07:13:15;2.95;;;2.58;;
23812;SDS011;12087;45.190;5.688;2023-02-25T07:18:37;14.13;;;3.00;;
23812;SDS011;12087;45.190;5.688;2023-02-25T07:23:59;3.72;;;2.33;;
23812;SDS011;12087;45.190;5.688;2023-02-25T07:29:23;3.92;;;2.30;;
23812;SDS011;12087;45.190;5.688;2023-02-25T07:34:45;2.35;;;1.80;;
23812;SDS011;12087;45.190;5.688;2023-02-25T07:40:08;4.28;;;2.42;;
23812;SDS011;12087;45.190;5.688;2023-02-25T07:45:34;2.40;;;1.90;;
23812;SDS011;12087;45.190;5.688;2023-02-25T07:50:56;10.90;;;2.83;;
23812;SDS011;12087;45.190;5.688;2023-02-25T07:56:26;2.60;;;2.10;;
23812;SDS011;12087;45.190;5.688;2023-02-25T08:01:50;3.42;;;2.30;;
23812;SDS011;12087;45.190;5.688;2023-02-25T08:07:12;4.95;;;2.53;;
23812;SDS011;12087;45.190;5.688;2023-02-25T08:12:35;4.55;;;3.10;;
23812;SDS011;12087;45.190;5.688;2023-02-25T08:17:59;2.95;;;2.65;;
23812;SDS011;12087;45.190;5.688;2023-02-25T08:23:21;5.82;;;2.72;;
23812;SDS011;12087;45.190;5.688;2023-02-25T08:28:44;4.10;;;3.05;;
23812;SDS011;12087;45.190;5.688;2023-02-25T08:39:45;5.65;;;3.00;;
23812;SDS011;12087;45.190;5.688;2023-02-25T08:45:08;3.42;;;3.05;;
23812;SDS011;12087;45.190;5.688;2023-02-25T08:50:32;4.75;;;3.42;;
23812;SDS011;12087;45.190;5.688;2023-02-25T08:55:54;5.88;;;4.05;;
23812;SDS011;12087;45.190;5.688;2023-02-25T09:01:17;6.20;;;3.40;;
23812;SDS011;12087;45.190;5.688;2023-02-25T09:06:41;4.97;;;2.85;;
23812;SDS011;12087;45.190;5.688;2023-02-25T09:12:06;12.13;;;3.08;;
23812;SDS011;12087;45.190;5.688;2023-02-25T09:17:28;6.32;;;2.65;;
23812;SDS011;12087;45.190;5.688;2023-02-25T09:22:52;6.05;;;2.60;;
23812;SDS011;12087;45.190;5.688;2023-02-25T09:28:14;6.70;;;2.50;;
23812;SDS011;12087;45.190;5.688;2023-02-25T09:33:37;5.47;;;2.55;;
23812;SDS011;12087;45.190;5.688;2023-02-25T09:39:03;3.03;;;2.72;;
23812;SDS011;12087;45.190;5.688;2023-02-25T09:44:30;5.03;;;2.90;;
23812;SDS011;12087;45.190;5.688;2023-02-25T09:49:55;7.75;;;3.40;;
23812;SDS011;12087;45.190;5.688;2023-02-25T09:55:23;9.75;;;3.33;;
23812;SDS011;12087;45.190;5.688;2023-02-25T10:00:56;3.95;;;2.78;;
23812;SDS011;12087;45.190;5.688;2023-02-25T10:06:26;6.97;;;3.22;;
23812;SDS011;12087;45.190;5.688;2023-02-25T10:11:55;3.83;;;3.00;;
23812;SDS011;12087;45.190;5.688;2023-02-25T10:17:25;5.00;;;3.28;;
23812;SDS011;12087;45.190;5.688;2023-02-25T10:23:03;5.15;;;3.47;;
23812;SDS011;12087;45.190;5.688;2023-02-25T10:28:34;6.90;;;3.58;;
23812;SDS011;12087;45.190;5.688;2023-02-25T10:34:01;4.63;;;2.92;;
23812;SDS011;12087;45.190;5.688;2023-02-25T10:39:35;5.05;;;3.40;;
23812;SDS011;12087;45.190;5.688;2023-02-25T10:45:00;6.40;;;3.40;;
23812;SDS011;12087;45.190;5.688;2023-02-25T10:50:28;5.18;;;3.53;;
23812;SDS011;12087;45.190;5.688;2023-02-25T10:55:51;7.20;;;3.42;;
23812;SDS011;12087;45.190;5.688;2023-02-25T11:01:16;3.45;;;3.00;;
23812;SDS011;12087;45.190;5.688;2023-02-25T11:06:41;6.82;;;3.38;;
23812;SDS011;12087;45.190;5.688;2023-02-25T11:12:14;6.50;;;3.38;;
23812;SDS011;12087;45.190;5.688;2023-02-25T11:17:43;8.38;;;3.35;;
23812;SDS011;12087;45.190;5.688;2023-02-25T11:23:12;5.18;;;3.00;;
23812;SDS011;12087;45.190;5.688;2023-02-25T11:28:43;7.88;;;3.30;;
23812;SDS011;12087;45.190;5.688;2023-02-25T11:34:13;5.43;;;3.40;;
23812;SDS011;12087;45.190;5.688;2023-02-25T11:39:40;9.80;;;3.42;;
23812;SDS011;12087;45.190;5.688;2023-02-25T11:45:15;5.63;;;3.42;;
23812;SDS011;12087;45.190;5.688;2023-02-25T11:50:41;3.88;;;2.92;;
23812;SDS011;12087;45.190;5.688;2023-02-25T11:56:10;9.65;;;3.88;;
23812;SDS011;12087;45.190;5.688;2023-02-25T12:01:45;4.07;;;3.08;;
23812;SDS011;12087;45.190;5.688;2023-02-25T12:13:08;5.90;;;3.28;;
23812;SDS011;12087;45.190;5.688;2023-02-25T12:19:00;6.70;;;3.22;;
23812;SDS011;12087;45.190;5.688;2023-02-25T12:24:47;6.32;;;3.92;;
23812;SDS011;12087;45.190;5.688;2023-02-25T12:30:35;13.90;;;7.15;;
23812;SDS011;12087;45.190;5.688;2023-02-25T12:36:14;8.10;;;3.60;;
23812;SDS011;12087;45.190;5.688;2023-02-25T12:41:46;6.40;;;3.50;;
23812;SDS011;12087;45.190;5.688;2023-02-25T12:47:32;3.37;;;3.07;;
23812;SDS011;12087;45.190;5.688;2023-02-25T12:53:11;6.00;;;3.53;;
23812;SDS011;12087;45.190;5.688;2023-02-25T12:58:51;6.07;;;3.43;;
23812;SDS011;12087;45.190;5.688;2023-02-25T13:10:38;4.97;;;3.78;;
23812;SDS011;12087;45.190;5.688;2023-02-25T13:16:12;6.57;;;4.05;;
23812;SDS011;12087;45.190;5.688;2023-02-25T13:21:53;7.77;;;3.80;;
23812;SDS011;12087;45.190;5.688;2023-02-25T13:27:29;5.95;;;3.70;;
23812;SDS011;12087;45.190;5.688;2023-02-25T13:33:09;7.53;;;3.83;;
23812;SDS011;12087;45.190;5.688;2023-02-25T13:38:56;16.40;;;4.55;;
23812;SDS011;12087;45.190;5.688;2023-02-25T13:44:36;7.43;;;4.43;;
23812;SDS011;12087;45.190;5.688;2023-02-25T13:50:21;9.93;;;4.38;;
23812;SDS011;12087;45.190;5.688;2023-02-25T14:02:02;12.38;;;4.65;;
23812;SDS011;12087;45.190;5.688;2023-02-25T14:07:44;8.52;;;4.38;;
23812;SDS011;12087;45.190;5.688;2023-02-25T14:13:22;6.70;;;4.40;;
23812;SDS011;12087;45.190;5.688;2023-02-25T14:19:11;8.20;;;4.35;;
23812;SDS011;12087;45.190;5.688;2023-02-25T14:24:48;6.83;;;4.50;;
23812;SDS011;12087;45.190;5.688;2023-02-25T14:30:20;5.70;;;4.20;;
23812;SDS011;12087;45.190;5.688;2023-02-25T14:35:52;9.88;;;4.10;;
23812;SDS011;12087;45.190;5.688;2023-02-25T14:41:27;5.35;;;3.60;;
23812;SDS011;12087;45.190;5.688;2023-02-25T14:46:58;6.47;;;4.35;;
23812;SDS011;12087;45.190;5.688;2023-02-25T14:58:22;10.43;;;4.28;;
23812;SDS011;12087;45.190;5.688;2023-02-25T15:04:05;6.38;;;4.30;;
23812;SDS011;12087;45.190;5.688;2023-02-25T15:15:53;9.75;;;4.43;;
23812;SDS011;12087;45.190;5.688;2023-02-25T15:21:47;11.38;;;5.10;;
23812;SDS011;12087;45.190;5.688;2023-02-25T15:33:20;8.95;;;5.15;;
23812;SDS011;12087;45.190;5.688;2023-02-25T15:38:48;11.13;;;6.75;;
23812;SDS011;12087;45.190;5.688;2023-02-25T15:44:29;11.77;;;7.57;;
23812;SDS011;12087;45.190;5.688;2023-02-25T15:49:55;11.85;;;8.30;;
23812;SDS011;12087;45.190;5.688;2023-02-25T15:55:30;18.17;;;8.32;;
23812;SDS011;12087;45.190;5.688;2023-02-25T16:00:57;12.70;;;6.95;;
23812;SDS011;12087;45.190;5.688;2023-02-25T16:06:21;15.85;;;7.00;;
23812;SDS011;12087;45.190;5.688;2023-02-25T16:11:48;16.15;;;9.48;;
23812;SDS011;12087;45.190;5.688;2023-02-25T16:17:16;21.95;;;13.45;;
23812;SDS011;12087;45.190;5.688;2023-02-25T16:22:42;15.63;;;9.70;;
23812;SDS011;12087;45.190;5.688;2023-02-25T16:28:10;17.33;;;8.77;;
23812;SDS011;12087;45.190;5.688;2023-02-25T16:33:42;20.98;;;10.02;;
23812;SDS011;12087;45.190;5.688;2023-02-25T16:39:12;16.00;;;9.20;;
23812;SDS011;12087;45.190;5.688;2023-02-25T16:44:40;15.60;;;9.40;;
23812;SDS011;12087;45.190;5.688;2023-02-25T16:50:10;14.40;;;9.00;;
23812;SDS011;12087;45.190;5.688;2023-02-25T16:55:35;15.75;;;9.55;;
23812;SDS011;12087;45.190;5.688;2023-02-25T17:01:02;15.18;;;8.93;;
23812;SDS011;12087;45.190;5.688;2023-02-25T17:06:24;14.60;;;8.38;;
23812;SDS011;12087;45.190;5.688;2023-02-25T17:11:47;12.93;;;8.70;;
23812;SDS011;12087;45.190;5.688;2023-02-25T17:17:16;14.07;;;7.57;;
23812;SDS011;12087;45.190;5.688;2023-02-25T17:22:44;13.50;;;8.30;;
23812;SDS011;12087;45.190;5.688;2023-02-25T17:28:08;11.23;;;6.65;;
23812;SDS011;12087;45.190;5.688;2023-02-25T17:33:46;14.20;;;7.13;;
23812;SDS011;12087;45.190;5.688;2023-02-25T17:39:12;9.35;;;6.43;;
23812;SDS011;12087;45.190;5.688;2023-02-25T17:44:42;12.55;;;6.97;;
23812;SDS011;12087;45.190;5.688;2023-02-25T17:50:18;14.20;;;7.13;;
23812;SDS011;12087;45.190;5.688;2023-02-25T17:55:47;9.25;;;5.75;;
23812;SDS011;12087;45.190;5.688;2023-02-25T18:01:17;10.95;;;6.13;;
23812;SDS011;12087;45.190;5.688;2023-02-25T18:06:46;9.77;;;5.88;;
23812;SDS011;12087;45.190;5.688;2023-02-25T18:12:12;8.63;;;6.05;;
23812;SDS011;12087;45.190;5.688;2023-02-25T18:17:42;11.63;;;6.40;;
23812;SDS011;12087;45.190;5.688;2023-02-25T18:23:15;11.80;;;6.20;;
23812;SDS011;12087;45.190;5.688;2023-02-25T18:28:40;10.75;;;5.93;;
23812;SDS011;12087;45.190;5.688;2023-02-25T18:34:04;10.80;;;5.97;;
23812;SDS011;12087;45.190;5.688;2023-02-25T18:39:28;8.45;;;5.38;;
23812;SDS011;12087;45.190;5.688;2023-02-25T18:44:51;8.70;;;5.57;;
23812;SDS011;12087;45.190;5.688;2023-02-25T18:50:13;8.93;;;6.00;;
23812;SDS011;12087;45.190;5.688;2023-02-25T18:55:38;11.48;;;6.20;;
23812;SDS011;12087;45.190;5.688;2023-02-25T19:01:00;14.10;;;7.85;;
23812;SDS011;12087;45.190;5.688;2023-02-25T19:06:23;12.02;;;8.15;;
23812;SDS011;12087;45.190;5.688;2023-02-25T19:11:47;13.77;;;7.78;;
23812;SDS011;12087;45.190;5.688;2023-02-25T19:17:12;10.77;;;6.53;;
23812;SDS011;12087;45.190;5.688;2023-02-25T19:22:39;20.05;;;6.35;;
23812;SDS011;12087;45.190;5.688;2023-02-25T19:28:04;13.88;;;5.88;;
23812;SDS011;12087;45.190;5.688;2023-02-25T19:33:27;10.82;;;5.53;;
23812;SDS011;12087;45.190;5.688;2023-02-25T19:38:49;12.55;;;7.13;;
23812;SDS011;12087;45.190;5.688;2023-02-25T19:44:13;14.95;;;8.63;;
23812;SDS011;12087;45.190;5.688;2023-02-25T19:49:35;10.93;;;5.22;;
23812;SDS011;12087;45.190;5.688;2023-02-25T19:54:58;9.45;;;5.78;;
23812;SDS011;12087;45.190;5.688;2023-02-25T20:00:22;8.77;;;5.57;;
23812;SDS011;12087;45.190;5.688;2023-02-25T20:05:45;13.07;;;6.05;;
23812;SDS011;12087;45.190;5.688;2023-02-25T20:11:07;12.82;;;8.25;;
23812;SDS011;12087;45.190;5.688;2023-02-25T20:16:32;12.90;;;6.72;;
23812;SDS011;12087;45.190;5.688;2023-02-25T20:21:54;15.90;;;8.52;;
23812;SDS011;12087;45.190;5.688;2023-02-25T20:27:17;8.15;;;5.57;;
23812;SDS011;12087;45.190;5.688;2023-02-25T20:32:41;10.10;;;6.15;;
23812;SDS011;12087;45.190;5.688;2023-02-25T20:38:10;12.40;;;7.50;;
23812;SDS011;12087;45.190;5.688;2023-02-25T20:43:38;11.40;;;5.93;;
23812;SDS011;12087;45.190;5.688;2023-02-25T20:49:02;10.80;;;4.78;;
23812;SDS011;12087;45.190;5.688;2023-02-25T20:54:25;8.88;;;4.68;;
23812;SDS011;12087;45.190;5.688;2023-02-25T20:59:47;10.10;;;5.45;;
23812;SDS011;12087;45.190;5.688;2023-02-25T21:05:12;10.95;;;6.57;;
23812;SDS011;12087;45.190;5.688;2023-02-25T21:10:34;9.43;;;5.60;;
23812;SDS011;12087;45.190;5.688;2023-02-25T21:15:57;10.57;;;5.30;;
23812;SDS011;12087;45.190;5.688;2023-02-25T21:21:21;7.65;;;5.20;;
23812;SDS011;12087;45.190;5.688;2023-02-25T21:26:46;7.95;;;5.07;;
23812;SDS011;12087;45.190;5.688;2023-02-25T21:32:08;5.78;;;5.00;;
23812;SDS011;12087;45.190;5.688;2023-02-25T21:37:31;10.77;;;5.32;;
23812;SDS011;12087;45.190;5.688;2023-02-25T21:42:54;8.43;;;5.10;;
23812;SDS011;12087;45.190;5.688;2023-02-25T21:48:17;6.55;;;4.32;;
23812;SDS011;12087;45.190;5.688;2023-02-25T21:53:45;8.13;;;4.22;;
23812;SDS011;12087;45.190;5.688;2023-02-25T21:59:07;7.88;;;4.35;;
23812;SDS011;12087;45.190;5.688;2023-02-25T22:04:30;6.38;;;4.18;;
23812;SDS011;12087;45.190;5.688;2023-02-25T22:09:53;6.50;;;3.92;;
23812;SDS011;12087;45.190;5.688;2023-02-25T22:15:16;9.25;;;4.25;;
23812;SDS011;12087;45.190;5.688;2023-02-25T22:20:39;9.52;;;4.35;;
23812;SDS011;12087;45.190;5.688;2023-02-25T22:26:03;9.35;;;3.95;;
23812;SDS011;12087;45.190;5.688;2023-02-25T22:31:26;11.05;;;4.40;;
23812;SDS011;12087;45.190;5.688;2023-02-25T22:36:49;7.82;;;4.32;;
23812;SDS011;12087;45.190;5.688;2023-02-25T22:42:12;7.55;;;4.55;;
23812;SDS011;12087;45.190;5.688;2023-02-25T22:47:35;8.27;;;4.10;;
23812;SDS011;12087;45.190;5.688;2023-02-25T22:52:57;8.88;;;4.13;;
23812;SDS011;12087;45.190;5.688;2023-02-25T22:58:21;7.05;;;4.10;;
23812;SDS011;12087;45.190;5.688;2023-02-25T23:03:43;9.02;;;5.22;;
23812;SDS011;12087;45.190;5.688;2023-02-25T23:09:06;8.95;;;4.50;;
23812;SDS011;12087;45.190;5.688;2023-02-25T23:14:30;5.53;;;4.18;;
23812;SDS011;12087;45.190;5.688;2023-02-25T23:19:54;5.90;;;4.20;;
23812;SDS011;12087;45.190;5.688;2023-02-25T23:25:19;10.63;;;4.75;;
23812;SDS011;12087;45.190;5.688;2023-02-25T23:30:43;6.13;;;4.22;;
23812;SDS011;12087;45.190;5.688;2023-02-25T23:36:05;6.50;;;3.92;;
23812;SDS011;12087;45.190;5.688;2023-02-25T23:41:28;8.05;;;4.25;;
23812;SDS011;12087;45.190;5.688;2023-02-25T23:46:52;8.98;;;3.88;;
23812;SDS011;12087;45.190;5.688;2023-02-25T23:52:14;8.43;;;4.25;;
23812;SDS011;12087;45.190;5.688;2023-02-25T23:57:36;6.15;;;3.88;;
